Corrona, Mississippi
Current Conditions -  °F | °C
As of 7:53 AM on Sunday 25 Jan 2015 (Local Time) from KTUP Reporting Station
Clear Clear  
Wind Chill: 33°   Ceiling: Unl
Heat Index: 37°   Visibility: 10mi
Dew Point: 33°   Wind: 5mph
Humidity: 86%   Direction: 160°SSE
Pressure: 29.86"   Gusts: NA
Location:  34.433°N, 88.7018°W
Report Text: KTUP 251353Z 16004KT 10SM CLR 03/01 A2986 RMK AO2 SLP111 T00280006 $
Loading
Personal Weather Stations






























Interactive Weather Map New forecast layout! Learn more

10-Day Weather Forecast

Advertisements
Track Severe Weather on mobile